Time;durP1;ratioP1;P1;durP2;ratioP2;P2;SDS_P1;SDS_P2;PMS_P1;PMS_P2;Temp;Humidity;BMP_temperature;BMP_pressure;BME280_temperature;BME280_humidity;BME280_pressure;Samples;Min_cycle;Max_cycle;Signal;HPM_P1;HPM_P2
2024/01/20 18:31:39;;;;;;;30.90;27.90;;;5.10;17.40;;;;;;6232393;22;20464;-80
2024/01/20 18:34:04;;;;;;;30.53;27.67;;;4.80;17.70;;;;;;6280784;22;20397;-79
2024/01/20 18:36:30;;;;;;;30.73;28.10;;;4.50;18.00;;;;;;6239005;23;20205;-78
2024/01/20 18:38:55;;;;;;;31.43;28.80;;;4.30;18.60;;;;;;6248165;23;20143;-78
2024/01/20 18:41:21;;;;;;;30.47;27.87;;;4.20;18.80;;;;;;6249481;23;20197;-80
2024/01/20 18:43:47;;;;;;;31.63;28.90;;;4.20;19.10;;;;;;6221762;23;20171;-79
2024/01/20 18:46:12;;;;;;;31.83;29.20;;;4.00;19.40;;;;;;6250360;22;20172;-79
2024/01/20 18:48:38;;;;;;;29.03;26.50;;;3.90;19.60;;;;;;6251592;23;20386;-80
2024/01/20 18:51:04;;;;;;;31.10;28.50;;;3.90;19.60;;;;;;6230876;23;20168;-81
2024/01/20 18:53:31;;;;;;;28.90;26.40;;;3.70;20.00;;;;;;6233835;23;20404;-81
2024/01/20 18:55:57;;;;;;;29.60;27.00;;;3.70;20.00;;;;;;6229270;23;20229;-79
2024/01/20 18:58:24;;;;;;;30.40;28.00;;;3.70;20.00;;;;;;6224541;23;20440;-79
2024/01/20 19:00:50;;;;;;;27.27;25.10;;;3.70;20.00;;;;;;6224632;23;20429;-79
2024/01/20 19:03:16;;;;;;;28.27;25.77;;;3.50;19.80;;;;;;6225368;23;20386;-79
2024/01/20 19:05:42;;;;;;;29.17;26.27;;;3.50;19.90;;;;;;6252704;22;20377;-78
2024/01/20 19:08:08;;;;;;;28.57;26.27;;;3.50;19.90;;;;;;6224797;23;20149;-78
2024/01/20 19:10:33;;;;;;;28.77;26.37;;;3.80;20.10;;;;;;6250844;23;20549;-78
2024/01/20 19:12:59;;;;;;;26.30;24.20;;;4.00;18.80;;;;;;6251092;23;20147;-78
2024/01/20 19:15:24;;;;;;;26.53;24.27;;;4.00;17.30;;;;;;6222602;23;20165;-78
2024/01/20 19:17:50;;;;;;;25.60;23.40;;;4.00;16.50;;;;;;6224190;23;20688;-77
2024/01/20 19:20:22;;;;;;;25.03;22.83;;;4.10;16.40;;;;;;6250853;23;20155;-78
2024/01/20 19:22:48;;;;;;;25.60;23.60;;;4.10;15.50;;;;;;6223009;23;20165;-78
2024/01/20 19:25:13;;;;;;;24.70;22.60;;;4.10;16.10;;;;;;6250079;23;20370;-78
2024/01/20 19:27:39;;;;;;;25.23;23.20;;;4.40;15.70;;;;;;6223444;23;20408;-77
2024/01/20 19:30:05;;;;;;;24.23;22.23;;;4.70;15.10;;;;;;6251298;23;20177;-79
2024/01/20 19:32:31;;;;;;;24.60;22.23;;;4.50;13.30;;;;;;6225760;23;20217;-79
2024/01/20 19:34:57;;;;;;;23.40;21.27;;;4.40;13.00;;;;;;6223117;23;20375;-78
2024/01/20 19:37:23;;;;;;;22.13;20.33;;;4.40;12.70;;;;;;6223516;23;20254;-78
2024/01/20 19:39:50;;;;;;;24.77;22.67;;;4.50;12.80;;;;;;6251125;23;20436;-78
2024/01/20 19:42:15;;;;;;;21.87;20.17;;;4.80;13.80;;;;;;6250908;23;20175;-79
2024/01/20 19:44:42;;;;;;;23.17;21.37;;;5.00;12.90;;;;;;6251584;23;21043;-78
2024/01/20 19:47:07;;;;;;;22.73;21.00;;;5.20;12.60;;;;;;6224391;23;20175;-79
2024/01/20 19:49:33;;;;;;;21.47;19.47;;;5.10;10.90;;;;;;6224293;23;20438;-79
2024/01/20 19:52:02;;;;;;;22.90;20.60;;;4.90;11.50;;;;;;6224188;23;20162;-78
2024/01/20 19:54:49;;;;;;;22.20;20.20;;;4.70;11.80;;;;;;6224783;23;20151;-79
2024/01/20 19:57:15;;;;;;;22.07;20.17;;;4.80;11.60;;;;;;6250674;22;20482;-79
2024/01/20 19:59:41;;;;;;;22.17;20.40;;;4.90;12.50;;;;;;6225056;23;20387;-79
2024/01/20 20:02:07;;;;;;;21.37;19.57;;;5.20;12.30;;;;;;6225242;23;20544;-79
2024/01/20 20:04:33;;;;;;;20.17;18.53;;;5.30;11.70;;;;;;6250897;23;20151;-79
2024/01/20 20:06:58;;;;;;;22.10;20.17;;;5.50;11.40;;;;;;6224714;23;20394;-77
2024/01/20 20:09:35;;;;;;;22.40;20.43;;;5.60;11.00;;;;;;6224398;23;20178;-79
2024/01/20 20:12:00;;;;;;;23.07;20.77;;;5.70;10.90;;;;;;6224684;23;20146;-78
2024/01/20 20:14:26;;;;;;;23.33;21.40;;;5.70;10.70;;;;;;6223648;23;20401;-77
2024/01/20 20:16:53;;;;;;;23.30;21.13;;;5.80;10.80;;;;;;6225043;23;20179;-79
2024/01/20 20:19:20;;;;;;;21.93;20.23;;;5.80;10.70;;;;;;6224931;23;20212;-78
2024/01/20 20:21:46;;;;;;;22.40;20.60;;;5.80;10.70;;;;;;6223937;23;20935;-79
2024/01/20 20:24:13;;;;;;;22.30;20.40;;;5.80;10.30;;;;;;6251701;23;20414;-79
2024/01/20 20:26:42;;;;;;;22.20;20.20;;;5.80;10.20;;;;;;6250502;22;20962;-78
2024/01/20 20:29:13;;;;;;;23.80;21.47;;;5.60;9.60;;;;;;6223466;23;20379;-79
2024/01/20 20:31:41;;;;;;;23.50;21.60;;;5.10;11.00;;;;;;6250576;23;20878;-78
2024/01/20 20:34:07;;;;;;;22.77;20.77;;;4.70;11.60;;;;;;6223409;23;20812;-78
2024/01/20 20:36:33;;;;;;;24.03;21.77;;;4.50;12.20;;;;;;6224209;23;20402;-80
2024/01/20 20:39:02;;;;;;;24.43;22.00;;;4.50;12.20;;;;;;6224089;23;20159;-80
2024/01/20 20:41:28;;;;;;;22.63;20.50;;;4.40;12.10;;;;;;6223144;23;20966;-79
2024/01/20 20:43:53;;;;;;;25.73;23.40;;;4.30;12.60;;;;;;6222601;23;20382;-80
2024/01/20 20:46:19;;;;;;;25.50;22.90;;;4.20;13.50;;;;;;6223905;23;20167;-80
2024/01/20 20:48:44;;;;;;;25.50;23.50;;;4.10;13.90;;;;;;6250316;23;20139;-79
2024/01/20 20:51:10;;;;;;;31.87;24.73;;;4.30;13.90;;;;;;6223970;23;20182;-79
2024/01/20 20:53:36;;;;;;;25.77;23.00;;;4.20;13.80;;;;;;6223534;23;20144;-78
2024/01/20 20:56:02;;;;;;;26.80;24.47;;;4.00;14.60;;;;;;6250758;22;20426;-80
2024/01/20 20:58:28;;;;;;;26.20;23.90;;;3.80;14.70;;;;;;6224483;23;20415;-79
2024/01/20 21:00:54;;;;;;;25.87;23.43;;;3.70;14.60;;;;;;6224515;23;20452;-79
2024/01/20 21:03:20;;;;;;;24.60;22.30;;;3.70;14.80;;;;;;6250283;23;20159;-79
2024/01/20 21:05:46;;;;;;;25.53;23.23;;;3.70;14.60;;;;;;6223357;22;20189;-78
2024/01/20 21:08:11;;;;;;;24.50;22.40;;;3.90;14.80;;;;;;6223512;23;20379;-78
2024/01/20 21:10:37;;;;;;;24.00;22.00;;;4.00;14.70;;;;;;6223939;23;20158;-78
2024/01/20 21:13:03;;;;;;;24.60;22.10;;;4.20;14.00;;;;;;6223125;23;20201;-79
2024/01/20 21:15:29;;;;;;;23.70;21.50;;;4.30;13.60;;;;;;6222997;23;20163;-79
2024/01/20 21:17:54;;;;;;;24.60;22.40;;;4.30;12.90;;;;;;6250281;22;20425;-78
2024/01/20 21:20:21;;;;;;;24.67;22.67;;;4.40;13.10;;;;;;6249434;23;20185;-78
2024/01/20 21:22:47;;;;;;;25.33;22.63;;;4.50;13.50;;;;;;6223142;23;20469;-77
2024/01/20 21:25:13;;;;;;;23.20;21.00;;;4.30;12.80;;;;;;6223001;23;20156;-78
2024/01/20 21:27:43;;;;;;;24.63;22.17;;;4.20;13.20;;;;;;6251062;22;20167;-78
2024/01/20 21:30:27;;;;;;;23.93;21.97;;;4.30;13.10;;;;;;6229420;23;20413;-80
2024/01/20 21:32:52;;;;;;;24.40;22.47;;;4.50;12.60;;;;;;6251395;23;20644;-78
2024/01/20 21:35:22;;;;;;;24.30;22.27;;;4.60;12.30;;;;;;6250449;23;20378;-79
2024/01/20 21:37:47;;;;;;;23.07;21.00;;;4.50;11.30;;;;;;6222452;23;20198;-79
2024/01/20 21:40:13;;;;;;;24.97;22.57;;;4.40;12.10;;;;;;6250606;23;20358;-79
2024/01/20 21:42:38;;;;;;;22.37;20.57;;;4.60;12.80;;;;;;6222595;23;20159;-80
2024/01/20 21:45:05;;;;;;;22.20;20.50;;;4.60;11.80;;;;;;6222423;23;20144;-80
2024/01/20 21:47:30;;;;;;;22.57;20.70;;;4.70;11.60;;;;;;6222659;23;20175;-79
2024/01/20 21:49:56;;;;;;;22.60;20.60;;;4.90;11.40;;;;;;6223394;23;20394;-80
2024/01/20 21:52:21;;;;;;;20.47;18.77;;;4.70;10.80;;;;;;6223315;23;20147;-80
2024/01/20 21:54:47;;;;;;;21.07;18.93;;;4.20;10.90;;;;;;6223568;23;20500;-79
2024/01/20 21:57:13;;;;;;;20.63;18.80;;;3.90;11.80;;;;;;6250940;22;20163;-79
2024/01/20 21:59:38;;;;;;;21.37;19.67;;;3.70;11.70;;;;;;6251741;23;20155;-79
2024/01/20 22:02:04;;;;;;;24.33;20.50;;;3.50;12.20;;;;;;6251617;23;20199;-79
2024/01/20 22:04:30;;;;;;;20.37;18.60;;;3.50;12.40;;;;;;6251898;23;20148;-78
2024/01/20 22:06:55;;;;;;;21.23;19.53;;;3.40;12.30;;;;;;6225383;23;20895;-79
2024/01/20 22:09:21;;;;;;;22.60;18.90;;;3.30;12.50;;;;;;6252069;23;20151;-79
2024/01/20 22:11:47;;;;;;;21.20;19.60;;;3.30;12.30;;;;;;6251612;23;20152;-79
2024/01/20 22:14:12;;;;;;;21.23;19.47;;;3.40;12.20;;;;;;6224089;23;20565;-78
2024/01/20 22:16:38;;;;;;;21.07;19.40;;;3.50;11.90;;;;;;6225716;23;20262;-79
2024/01/20 22:19:03;;;;;;;22.50;20.70;;;3.60;12.70;;;;;;6223544;23;20166;-79
2024/01/20 22:21:29;;;;;;;24.03;21.53;;;3.70;11.70;;;;;;6251787;23;20167;-79
2024/01/20 22:24:00;;;;;;;22.97;20.60;;;3.50;12.50;;;;;;6250960;23;20152;-79
2024/01/20 22:26:25;;;;;;;23.33;21.43;;;3.40;12.80;;;;;;6250056;22;20163;-79
2024/01/20 22:28:52;;;;;;;23.93;22.00;;;3.30;13.30;;;;;;6223234;23;20409;-79
2024/01/20 22:31:18;;;;;;;26.90;24.30;;;3.60;13.20;;;;;;6250145;23;20536;-79
2024/01/20 22:33:44;;;;;;;29.63;26.90;;;3.80;12.80;;;;;;6252351;23;20426;-80
2024/01/20 22:36:09;;;;;;;22.37;20.47;;;4.10;12.40;;;;;;6224538;23;20178;-79
2024/01/20 22:38:36;;;;;;;20.93;19.33;;;4.00;11.70;;;;;;6225235;23;20605;-79
2024/01/20 22:41:02;;;;;;;21.53;18.27;;;3.60;12.00;;;;;;6225254;23;20179;-79
2024/01/20 22:43:27;;;;;;;21.07;19.47;;;3.30;12.30;;;;;;6223999;23;20763;-79
2024/01/20 22:45:53;;;;;;;21.93;19.83;;;3.10;12.70;;;;;;6223833;22;20394;-79
2024/01/20 22:48:19;;;;;;;21.07;19.23;;;2.90;12.90;;;;;;6251186;23;20163;-79
2024/01/20 22:50:44;;;;;;;20.77;19.03;;;2.80;13.10;;;;;;6223642;23;20143;-78
2024/01/20 22:53:10;;;;;;;24.57;19.37;;;2.70;13.60;;;;;;6249630;23;20382;-79
2024/01/20 22:55:36;;;;;;;20.70;18.97;;;2.80;13.40;;;;;;6223515;22;20196;-79
2024/01/20 22:58:02;;;;;;;20.10;18.27;;;2.60;13.20;;;;;;6229850;23;20390;-79
2024/01/20 23:00:38;;;;;;;17.70;16.30;;;2.60;13.40;;;;;;6225001;23;20547;-80
2024/01/20 23:03:05;;;;;;;19.77;18.17;;;2.80;13.30;;;;;;6251011;23;20190;-79
2024/01/20 23:05:37;;;;;;;19.63;18.00;;;2.80;12.60;;;;;;6249282;22;20378;-79
2024/01/20 23:08:03;;;;;;;19.47;17.73;;;2.80;12.80;;;;;;6257443;22;20451;-82
2024/01/20 23:10:29;;;;;;;20.53;18.57;;;3.00;12.20;;;;;;6281946;22;20401;-81
2024/01/20 23:12:54;;;;;;;19.87;17.87;;;3.10;12.30;;;;;;6280891;22;20154;-80
2024/01/20 23:15:20;;;;;;;21.60;20.00;;;2.90;12.30;;;;;;6281145;22;20240;-81
2024/01/20 23:17:45;;;;;;;21.30;19.60;;;2.80;12.70;;;;;;6267327;22;20255;-81
2024/01/20 23:20:11;;;;;;;21.70;19.90;;;2.80;12.60;;;;;;6251526;22;20596;-80
2024/01/20 23:22:37;;;;;;;22.53;20.80;;;2.80;13.10;;;;;;6250195;22;20694;-80
2024/01/20 23:25:02;;;;;;;23.97;21.73;;;2.60;13.80;;;;;;6278065;22;20369;-80
2024/01/20 23:27:28;;;;;;;22.93;21.03;;;2.70;13.90;;;;;;6253311;22;20636;-80
2024/01/20 23:29:53;;;;;;;22.97;21.07;;;2.90;13.60;;;;;;6254045;22;20151;-80
2024/01/20 23:32:19;;;;;;;22.57;20.87;;;3.10;13.40;;;;;;6253367;22;20165;-80
2024/01/20 23:34:44;;;;;;;21.97;20.27;;;3.20;13.00;;;;;;6279922;22;20178;-82
2024/01/20 23:37:10;;;;;;;23.50;21.50;;;3.30;13.10;;;;;;6281753;22;20173;-80
2024/01/20 23:39:35;;;;;;;23.80;21.90;;;3.60;12.60;;;;;;6254260;22;20473;-80
2024/01/20 23:42:01;;;;;;;23.47;21.50;;;3.80;12.30;;;;;;6254412;22;20179;-80
2024/01/20 23:44:27;;;;;;;22.80;20.90;;;4.00;11.90;;;;;;6254313;22;20472;-80
2024/01/20 23:46:54;;;;;;;22.80;20.90;;;4.10;11.80;;;;;;6254313;22;20509;-81
2024/01/20 23:49:20;;;;;;;21.63;19.90;;;4.30;11.50;;;;;;6254902;22;20557;-81
2024/01/20 23:51:45;;;;;;;22.73;20.83;;;4.40;11.00;;;;;;6254848;22;20386;-82
2024/01/20 23:54:11;;;;;;;25.23;23.20;;;4.50;11.00;;;;;;6254185;22;20384;-82
2024/01/20 23:56:37;;;;;;;25.70;23.20;;;4.40;10.80;;;;;;6255151;22;20154;-82
2024/01/20 23:59:02;;;;;;;22.53;20.70;;;4.20;11.20;;;;;;6253436;22;20154;-80
